sensor_id;sensor_type;location;lat;lon;timestamp;P1;durP1;ratioP1;P2;durP2;ratioP2
1204;SDS011;592;48.764;9.174;2023-06-14T00:02:21;9.07;;;4.97;;
1204;SDS011;592;48.764;9.174;2023-06-14T00:04:48;6.70;;;4.27;;
1204;SDS011;592;48.764;9.174;2023-06-14T00:07:17;7.27;;;4.87;;
1204;SDS011;592;48.764;9.174;2023-06-14T00:09:44;7.67;;;4.60;;
1204;SDS011;592;48.764;9.174;2023-06-14T00:12:12;7.00;;;4.60;;
1204;SDS011;592;48.764;9.174;2023-06-14T00:14:38;6.97;;;4.60;;
1204;SDS011;592;48.764;9.174;2023-06-14T00:17:05;6.33;;;4.70;;
1204;SDS011;592;48.764;9.174;2023-06-14T00:19:32;6.10;;;4.23;;
1204;SDS011;592;48.764;9.174;2023-06-14T00:22:01;10.00;;;5.20;;
1204;SDS011;592;48.764;9.174;2023-06-14T00:24:28;7.93;;;4.90;;
1204;SDS011;592;48.764;9.174;2023-06-14T00:26:55;9.87;;;5.20;;
1204;SDS011;592;48.764;9.174;2023-06-14T00:29:23;7.50;;;4.73;;
1204;SDS011;592;48.764;9.174;2023-06-14T00:31:49;9.53;;;5.87;;
1204;SDS011;592;48.764;9.174;2023-06-14T00:34:16;8.37;;;5.10;;
1204;SDS011;592;48.764;9.174;2023-06-14T00:36:43;8.20;;;4.77;;
1204;SDS011;592;48.764;9.174;2023-06-14T00:39:09;6.33;;;4.50;;
1204;SDS011;592;48.764;9.174;2023-06-14T00:41:36;6.27;;;4.30;;
1204;SDS011;592;48.764;9.174;2023-06-14T00:44:04;6.67;;;4.60;;
1204;SDS011;592;48.764;9.174;2023-06-14T00:46:32;7.30;;;4.73;;
1204;SDS011;592;48.764;9.174;2023-06-14T00:48:59;9.77;;;5.33;;
1204;SDS011;592;48.764;9.174;2023-06-14T00:51:27;7.00;;;5.20;;
1204;SDS011;592;48.764;9.174;2023-06-14T00:53:54;9.53;;;5.00;;
1204;SDS011;592;48.764;9.174;2023-06-14T00:56:21;7.27;;;5.03;;
1204;SDS011;592;48.764;9.174;2023-06-14T00:58:48;10.13;;;5.67;;
1204;SDS011;592;48.764;9.174;2023-06-14T01:01:16;7.07;;;4.33;;
1204;SDS011;592;48.764;9.174;2023-06-14T01:03:44;10.80;;;5.00;;
1204;SDS011;592;48.764;9.174;2023-06-14T01:06:13;6.87;;;4.70;;
1204;SDS011;592;48.764;9.174;2023-06-14T01:08:59;7.90;;;5.47;;
1204;SDS011;592;48.764;9.174;2023-06-14T01:11:32;7.30;;;4.60;;
1204;SDS011;592;48.764;9.174;2023-06-14T01:14:03;7.97;;;5.20;;
1204;SDS011;592;48.764;9.174;2023-06-14T01:16:31;8.93;;;5.20;;
1204;SDS011;592;48.764;9.174;2023-06-14T01:19:01;9.50;;;5.37;;
1204;SDS011;592;48.764;9.174;2023-06-14T01:21:28;9.30;;;5.57;;
1204;SDS011;592;48.764;9.174;2023-06-14T01:23:56;6.47;;;4.43;;
1204;SDS011;592;48.764;9.174;2023-06-14T01:26:23;9.07;;;5.40;;
1204;SDS011;592;48.764;9.174;2023-06-14T01:28:51;8.70;;;4.50;;
1204;SDS011;592;48.764;9.174;2023-06-14T01:31:23;7.33;;;5.13;;
1204;SDS011;592;48.764;9.174;2023-06-14T01:33:52;8.57;;;5.47;;
1204;SDS011;592;48.764;9.174;2023-06-14T01:36:19;9.23;;;5.23;;
1204;SDS011;592;48.764;9.174;2023-06-14T01:38:47;10.20;;;5.17;;
1204;SDS011;592;48.764;9.174;2023-06-14T01:41:16;7.00;;;4.80;;
1204;SDS011;592;48.764;9.174;2023-06-14T01:43:46;8.07;;;5.53;;
1204;SDS011;592;48.764;9.174;2023-06-14T01:46:14;7.07;;;5.00;;
1204;SDS011;592;48.764;9.174;2023-06-14T01:48:42;7.00;;;4.20;;
1204;SDS011;592;48.764;9.174;2023-06-14T01:51:09;8.30;;;5.30;;
1204;SDS011;592;48.764;9.174;2023-06-14T01:53:36;7.73;;;4.70;;
1204;SDS011;592;48.764;9.174;2023-06-14T01:56:02;7.90;;;4.90;;
1204;SDS011;592;48.764;9.174;2023-06-14T01:58:31;7.23;;;4.73;;
1204;SDS011;592;48.764;9.174;2023-06-14T02:00:58;9.03;;;5.10;;
1204;SDS011;592;48.764;9.174;2023-06-14T02:03:25;7.80;;;4.87;;
1204;SDS011;592;48.764;9.174;2023-06-14T02:05:52;8.03;;;4.90;;
1204;SDS011;592;48.764;9.174;2023-06-14T02:08:20;10.93;;;5.10;;
1204;SDS011;592;48.764;9.174;2023-06-14T02:10:47;8.70;;;5.00;;
1204;SDS011;592;48.764;9.174;2023-06-14T02:13:13;7.73;;;5.17;;
1204;SDS011;592;48.764;9.174;2023-06-14T02:15:42;7.77;;;5.20;;
1204;SDS011;592;48.764;9.174;2023-06-14T02:18:09;10.10;;;4.77;;
1204;SDS011;592;48.764;9.174;2023-06-14T02:20:36;8.07;;;5.57;;
1204;SDS011;592;48.764;9.174;2023-06-14T02:23:03;8.67;;;5.40;;
1204;SDS011;592;48.764;9.174;2023-06-14T02:25:30;9.13;;;4.93;;
1204;SDS011;592;48.764;9.174;2023-06-14T02:27:56;7.27;;;4.87;;
1204;SDS011;592;48.764;9.174;2023-06-14T02:30:23;9.00;;;5.23;;
1204;SDS011;592;48.764;9.174;2023-06-14T02:32:51;11.77;;;5.37;;
1204;SDS011;592;48.764;9.174;2023-06-14T02:35:18;8.13;;;4.70;;
1204;SDS011;592;48.764;9.174;2023-06-14T02:37:45;6.90;;;5.10;;
1204;SDS011;592;48.764;9.174;2023-06-14T02:40:12;8.57;;;5.30;;
1204;SDS011;592;48.764;9.174;2023-06-14T02:42:39;8.73;;;5.13;;
1204;SDS011;592;48.764;9.174;2023-06-14T02:45:06;7.73;;;5.30;;
1204;SDS011;592;48.764;9.174;2023-06-14T02:47:34;7.47;;;5.30;;
1204;SDS011;592;48.764;9.174;2023-06-14T02:50:02;9.40;;;5.40;;
1204;SDS011;592;48.764;9.174;2023-06-14T02:52:29;16.43;;;5.40;;
1204;SDS011;592;48.764;9.174;2023-06-14T02:54:58;9.03;;;4.93;;
1204;SDS011;592;48.764;9.174;2023-06-14T02:57:25;8.17;;;5.20;;
1204;SDS011;592;48.764;9.174;2023-06-14T02:59:51;7.87;;;5.00;;
1204;SDS011;592;48.764;9.174;2023-06-14T03:02:18;8.70;;;5.40;;
1204;SDS011;592;48.764;9.174;2023-06-14T03:04:45;9.13;;;4.77;;
1204;SDS011;592;48.764;9.174;2023-06-14T03:07:13;7.10;;;4.97;;
1204;SDS011;592;48.764;9.174;2023-06-14T03:09:44;10.80;;;5.10;;
1204;SDS011;592;48.764;9.174;2023-06-14T03:12:11;8.50;;;5.30;;
1204;SDS011;592;48.764;9.174;2023-06-14T03:14:38;6.80;;;4.90;;
1204;SDS011;592;48.764;9.174;2023-06-14T03:17:05;7.83;;;5.10;;
1204;SDS011;592;48.764;9.174;2023-06-14T03:19:33;7.70;;;5.07;;
1204;SDS011;592;48.764;9.174;2023-06-14T03:21:59;11.97;;;5.23;;
1204;SDS011;592;48.764;9.174;2023-06-14T03:24:28;8.97;;;5.47;;
1204;SDS011;592;48.764;9.174;2023-06-14T03:26:57;7.13;;;5.13;;
1204;SDS011;592;48.764;9.174;2023-06-14T03:29:23;6.43;;;4.67;;
1204;SDS011;592;48.764;9.174;2023-06-14T03:31:57;6.30;;;4.63;;
1204;SDS011;592;48.764;9.174;2023-06-14T03:34:24;9.17;;;5.37;;
1204;SDS011;592;48.764;9.174;2023-06-14T03:36:51;7.53;;;4.83;;
1204;SDS011;592;48.764;9.174;2023-06-14T03:39:18;9.13;;;6.00;;
1204;SDS011;592;48.764;9.174;2023-06-14T03:41:46;7.77;;;5.37;;
1204;SDS011;592;48.764;9.174;2023-06-14T03:44:13;9.70;;;5.20;;
1204;SDS011;592;48.764;9.174;2023-06-14T03:46:41;7.03;;;5.33;;
1204;SDS011;592;48.764;9.174;2023-06-14T03:49:08;9.40;;;5.70;;
1204;SDS011;592;48.764;9.174;2023-06-14T03:51:35;8.37;;;4.90;;
1204;SDS011;592;48.764;9.174;2023-06-14T03:54:02;8.33;;;4.97;;
1204;SDS011;592;48.764;9.174;2023-06-14T03:56:29;8.43;;;5.10;;
1204;SDS011;592;48.764;9.174;2023-06-14T03:58:57;8.83;;;5.13;;
1204;SDS011;592;48.764;9.174;2023-06-14T04:01:24;10.20;;;5.43;;
1204;SDS011;592;48.764;9.174;2023-06-14T04:03:52;9.17;;;4.83;;
1204;SDS011;592;48.764;9.174;2023-06-14T04:06:19;7.90;;;5.50;;
1204;SDS011;592;48.764;9.174;2023-06-14T04:08:46;12.03;;;5.97;;
1204;SDS011;592;48.764;9.174;2023-06-14T04:11:14;9.00;;;5.40;;
1204;SDS011;592;48.764;9.174;2023-06-14T04:13:41;8.10;;;5.03;;
1204;SDS011;592;48.764;9.174;2023-06-14T04:16:09;10.53;;;5.80;;
1204;SDS011;592;48.764;9.174;2023-06-14T04:18:35;7.80;;;5.60;;
1204;SDS011;592;48.764;9.174;2023-06-14T04:21:02;7.17;;;5.50;;
1204;SDS011;592;48.764;9.174;2023-06-14T04:23:29;6.87;;;4.67;;
1204;SDS011;592;48.764;9.174;2023-06-14T04:25:57;9.67;;;5.57;;
1204;SDS011;592;48.764;9.174;2023-06-14T04:28:27;7.73;;;4.90;;
1204;SDS011;592;48.764;9.174;2023-06-14T04:30:54;12.90;;;5.37;;
1204;SDS011;592;48.764;9.174;2023-06-14T04:33:22;11.13;;;5.20;;
1204;SDS011;592;48.764;9.174;2023-06-14T04:35:50;8.63;;;5.07;;
1204;SDS011;592;48.764;9.174;2023-06-14T04:38:18;8.47;;;5.37;;
1204;SDS011;592;48.764;9.174;2023-06-14T04:40:49;8.37;;;5.20;;
1204;SDS011;592;48.764;9.174;2023-06-14T04:43:17;8.03;;;5.30;;
1204;SDS011;592;48.764;9.174;2023-06-14T04:45:52;6.50;;;4.83;;
1204;SDS011;592;48.764;9.174;2023-06-14T04:48:19;10.33;;;6.23;;
1204;SDS011;592;48.764;9.174;2023-06-14T04:50:48;11.47;;;5.97;;
1204;SDS011;592;48.764;9.174;2023-06-14T04:53:17;11.13;;;5.57;;
1204;SDS011;592;48.764;9.174;2023-06-14T04:55:46;10.33;;;6.07;;
1204;SDS011;592;48.764;9.174;2023-06-14T04:58:13;8.63;;;5.57;;
1204;SDS011;592;48.764;9.174;2023-06-14T05:00:39;9.40;;;5.70;;
1204;SDS011;592;48.764;9.174;2023-06-14T05:03:08;8.10;;;5.30;;
1204;SDS011;592;48.764;9.174;2023-06-14T05:05:38;7.20;;;4.90;;
1204;SDS011;592;48.764;9.174;2023-06-14T05:08:06;9.40;;;5.17;;
1204;SDS011;592;48.764;9.174;2023-06-14T05:10:33;8.43;;;5.60;;
1204;SDS011;592;48.764;9.174;2023-06-14T05:13:01;8.13;;;5.07;;
1204;SDS011;592;48.764;9.174;2023-06-14T05:15:28;10.70;;;5.40;;
1204;SDS011;592;48.764;9.174;2023-06-14T05:17:55;8.63;;;5.70;;
1204;SDS011;592;48.764;9.174;2023-06-14T05:20:22;8.97;;;5.60;;
1204;SDS011;592;48.764;9.174;2023-06-14T05:22:49;7.33;;;5.50;;
1204;SDS011;592;48.764;9.174;2023-06-14T05:25:19;11.53;;;6.83;;
1204;SDS011;592;48.764;9.174;2023-06-14T05:27:46;7.80;;;5.93;;
1204;SDS011;592;48.764;9.174;2023-06-14T05:30:13;8.57;;;5.47;;
1204;SDS011;592;48.764;9.174;2023-06-14T05:32:40;10.27;;;6.67;;
1204;SDS011;592;48.764;9.174;2023-06-14T05:35:08;8.47;;;6.30;;
1204;SDS011;592;48.764;9.174;2023-06-14T05:37:35;12.30;;;6.77;;
1204;SDS011;592;48.764;9.174;2023-06-14T05:40:02;8.47;;;6.03;;
1204;SDS011;592;48.764;9.174;2023-06-14T05:42:32;8.93;;;6.07;;
1204;SDS011;592;48.764;9.174;2023-06-14T05:44:59;20.67;;;7.37;;
1204;SDS011;592;48.764;9.174;2023-06-14T05:47:25;9.00;;;6.10;;
1204;SDS011;592;48.764;9.174;2023-06-14T05:49:52;9.93;;;6.50;;
1204;SDS011;592;48.764;9.174;2023-06-14T05:52:19;9.50;;;6.40;;
1204;SDS011;592;48.764;9.174;2023-06-14T05:54:46;9.67;;;6.60;;
1204;SDS011;592;48.764;9.174;2023-06-14T05:57:14;11.40;;;6.30;;
1204;SDS011;592;48.764;9.174;2023-06-14T05:59:42;9.80;;;6.50;;
1204;SDS011;592;48.764;9.174;2023-06-14T06:02:09;9.77;;;6.53;;
1204;SDS011;592;48.764;9.174;2023-06-14T06:04:35;10.00;;;6.80;;
1204;SDS011;592;48.764;9.174;2023-06-14T06:07:02;11.23;;;7.33;;
1204;SDS011;592;48.764;9.174;2023-06-14T06:09:30;8.63;;;6.30;;
1204;SDS011;592;48.764;9.174;2023-06-14T06:11:56;9.10;;;6.60;;
1204;SDS011;592;48.764;9.174;2023-06-14T06:14:23;11.93;;;6.43;;
1204;SDS011;592;48.764;9.174;2023-06-14T06:16:51;9.07;;;6.40;;
1204;SDS011;592;48.764;9.174;2023-06-14T06:19:18;9.67;;;6.10;;
1204;SDS011;592;48.764;9.174;2023-06-14T06:21:45;10.43;;;6.40;;
1204;SDS011;592;48.764;9.174;2023-06-14T06:24:12;10.57;;;5.83;;
1204;SDS011;592;48.764;9.174;2023-06-14T06:26:39;8.73;;;6.37;;
1204;SDS011;592;48.764;9.174;2023-06-14T06:29:05;8.90;;;6.00;;
1204;SDS011;592;48.764;9.174;2023-06-14T06:31:32;10.30;;;5.60;;
1204;SDS011;592;48.764;9.174;2023-06-14T06:34:00;7.80;;;5.73;;
1204;SDS011;592;48.764;9.174;2023-06-14T06:36:27;13.20;;;5.93;;
1204;SDS011;592;48.764;9.174;2023-06-14T06:38:54;8.40;;;5.97;;
1204;SDS011;592;48.764;9.174;2023-06-14T06:41:21;11.17;;;6.57;;
1204;SDS011;592;48.764;9.174;2023-06-14T06:43:48;9.67;;;6.23;;
1204;SDS011;592;48.764;9.174;2023-06-14T06:46:15;8.77;;;6.37;;
1204;SDS011;592;48.764;9.174;2023-06-14T06:48:43;8.07;;;6.50;;
1204;SDS011;592;48.764;9.174;2023-06-14T06:51:11;8.67;;;6.07;;
1204;SDS011;592;48.764;9.174;2023-06-14T06:53:38;9.13;;;6.30;;
1204;SDS011;592;48.764;9.174;2023-06-14T06:56:05;9.77;;;5.63;;
1204;SDS011;592;48.764;9.174;2023-06-14T06:58:32;8.10;;;5.60;;
1204;SDS011;592;48.764;9.174;2023-06-14T07:00:59;8.57;;;5.90;;
1204;SDS011;592;48.764;9.174;2023-06-14T07:03:26;8.37;;;5.67;;
1204;SDS011;592;48.764;9.174;2023-06-14T07:05:52;8.53;;;5.47;;
1204;SDS011;592;48.764;9.174;2023-06-14T07:08:20;11.63;;;6.20;;
1204;SDS011;592;48.764;9.174;2023-06-14T07:10:47;8.13;;;6.33;;
1204;SDS011;592;48.764;9.174;2023-06-14T07:13:14;8.97;;;6.00;;
1204;SDS011;592;48.764;9.174;2023-06-14T07:15:41;9.13;;;5.63;;
1204;SDS011;592;48.764;9.174;2023-06-14T07:18:07;8.43;;;5.80;;
1204;SDS011;592;48.764;9.174;2023-06-14T07:20:34;7.93;;;5.13;;
1204;SDS011;592;48.764;9.174;2023-06-14T07:23:03;8.10;;;5.33;;
1204;SDS011;592;48.764;9.174;2023-06-14T07:25:31;7.57;;;5.30;;
1204;SDS011;592;48.764;9.174;2023-06-14T07:27:58;12.00;;;6.43;;
1204;SDS011;592;48.764;9.174;2023-06-14T07:30:25;9.17;;;5.60;;
1204;SDS011;592;48.764;9.174;2023-06-14T07:32:52;7.93;;;5.67;;
1204;SDS011;592;48.764;9.174;2023-06-14T07:35:19;9.90;;;5.90;;
1204;SDS011;592;48.764;9.174;2023-06-14T07:37:46;9.23;;;6.23;;
1204;SDS011;592;48.764;9.174;2023-06-14T07:40:13;7.27;;;5.60;;
1204;SDS011;592;48.764;9.174;2023-06-14T07:42:41;12.67;;;6.77;;
1204;SDS011;592;48.764;9.174;2023-06-14T07:45:08;8.10;;;5.53;;
1204;SDS011;592;48.764;9.174;2023-06-14T07:47:35;9.40;;;6.60;;
1204;SDS011;592;48.764;9.174;2023-06-14T07:50:02;8.77;;;5.90;;
1204;SDS011;592;48.764;9.174;2023-06-14T07:52:29;8.40;;;5.93;;
1204;SDS011;592;48.764;9.174;2023-06-14T07:54:56;11.73;;;5.93;;
1204;SDS011;592;48.764;9.174;2023-06-14T07:57:23;8.90;;;6.07;;
1204;SDS011;592;48.764;9.174;2023-06-14T07:59:51;11.90;;;6.33;;
1204;SDS011;592;48.764;9.174;2023-06-14T08:02:18;11.00;;;6.23;;
1204;SDS011;592;48.764;9.174;2023-06-14T08:04:44;8.23;;;6.17;;
1204;SDS011;592;48.764;9.174;2023-06-14T08:07:11;10.93;;;5.93;;
1204;SDS011;592;48.764;9.174;2023-06-14T08:09:38;11.17;;;6.30;;
1204;SDS011;592;48.764;9.174;2023-06-14T08:12:05;9.07;;;6.60;;
1204;SDS011;592;48.764;9.174;2023-06-14T08:14:34;9.00;;;6.20;;
1204;SDS011;592;48.764;9.174;2023-06-14T08:17:03;10.13;;;6.30;;
1204;SDS011;592;48.764;9.174;2023-06-14T08:19:30;11.07;;;6.70;;
1204;SDS011;592;48.764;9.174;2023-06-14T08:21:57;10.43;;;6.40;;
1204;SDS011;592;48.764;9.174;2023-06-14T08:24:23;8.13;;;6.17;;
1204;SDS011;592;48.764;9.174;2023-06-14T08:26:51;9.50;;;6.27;;
1204;SDS011;592;48.764;9.174;2023-06-14T08:29:18;10.50;;;6.80;;
1204;SDS011;592;48.764;9.174;2023-06-14T08:31:45;8.47;;;6.30;;
1204;SDS011;592;48.764;9.174;2023-06-14T08:34:14;9.17;;;5.80;;
1204;SDS011;592;48.764;9.174;2023-06-14T08:36:40;10.60;;;7.00;;
1204;SDS011;592;48.764;9.174;2023-06-14T08:39:07;7.97;;;5.83;;
1204;SDS011;592;48.764;9.174;2023-06-14T08:41:34;9.33;;;6.93;;
1204;SDS011;592;48.764;9.174;2023-06-14T08:44:02;9.07;;;5.80;;
1204;SDS011;592;48.764;9.174;2023-06-14T08:46:29;9.73;;;6.90;;
1204;SDS011;592;48.764;9.174;2023-06-14T08:48:58;11.33;;;6.30;;
1204;SDS011;592;48.764;9.174;2023-06-14T08:51:28;8.70;;;6.23;;
1204;SDS011;592;48.764;9.174;2023-06-14T08:53:59;10.37;;;6.70;;
1204;SDS011;592;48.764;9.174;2023-06-14T08:56:27;9.80;;;6.40;;
1204;SDS011;592;48.764;9.174;2023-06-14T08:58:54;9.90;;;6.30;;
1204;SDS011;592;48.764;9.174;2023-06-14T09:01:21;11.97;;;6.10;;
1204;SDS011;592;48.764;9.174;2023-06-14T09:03:48;10.13;;;6.90;;
1204;SDS011;592;48.764;9.174;2023-06-14T09:06:15;9.60;;;6.37;;
1204;SDS011;592;48.764;9.174;2023-06-14T09:08:45;8.40;;;5.70;;
1204;SDS011;592;48.764;9.174;2023-06-14T09:11:13;9.70;;;6.40;;
1204;SDS011;592;48.764;9.174;2023-06-14T09:13:41;9.70;;;6.17;;
1204;SDS011;592;48.764;9.174;2023-06-14T09:16:08;9.47;;;6.60;;
1204;SDS011;592;48.764;9.174;2023-06-14T09:18:35;8.50;;;5.70;;
1204;SDS011;592;48.764;9.174;2023-06-14T09:21:03;7.80;;;5.63;;
1204;SDS011;592;48.764;9.174;2023-06-14T09:23:33;8.87;;;6.40;;
1204;SDS011;592;48.764;9.174;2023-06-14T09:26:07;9.77;;;6.70;;
1204;SDS011;592;48.764;9.174;2023-06-14T09:28:34;10.67;;;6.03;;
1204;SDS011;592;48.764;9.174;2023-06-14T09:31:01;8.20;;;6.00;;
1204;SDS011;592;48.764;9.174;2023-06-14T09:33:28;7.70;;;5.10;;
1204;SDS011;592;48.764;9.174;2023-06-14T09:35:56;9.17;;;5.40;;
1204;SDS011;592;48.764;9.174;2023-06-14T09:38:24;13.13;;;6.03;;
1204;SDS011;592;48.764;9.174;2023-06-14T09:40:51;8.43;;;5.97;;
1204;SDS011;592;48.764;9.174;2023-06-14T09:43:19;9.67;;;5.70;;
1204;SDS011;592;48.764;9.174;2023-06-14T09:45:47;8.63;;;6.30;;
1204;SDS011;592;48.764;9.174;2023-06-14T09:48:14;9.00;;;6.20;;
1204;SDS011;592;48.764;9.174;2023-06-14T09:50:42;8.33;;;5.57;;
1204;SDS011;592;48.764;9.174;2023-06-14T09:53:11;8.77;;;5.93;;
1204;SDS011;592;48.764;9.174;2023-06-14T09:55:40;9.17;;;5.90;;
1204;SDS011;592;48.764;9.174;2023-06-14T09:58:08;8.93;;;6.20;;
1204;SDS011;592;48.764;9.174;2023-06-14T10:00:38;8.93;;;5.43;;
1204;SDS011;592;48.764;9.174;2023-06-14T10:03:12;7.80;;;5.97;;
1204;SDS011;592;48.764;9.174;2023-06-14T10:05:41;8.57;;;6.37;;
1204;SDS011;592;48.764;9.174;2023-06-14T10:08:10;7.03;;;5.03;;
1204;SDS011;592;48.764;9.174;2023-06-14T10:10:41;9.50;;;5.00;;
1204;SDS011;592;48.764;9.174;2023-06-14T10:13:09;8.57;;;6.10;;
1204;SDS011;592;48.764;9.174;2023-06-14T10:15:41;8.37;;;6.03;;
1204;SDS011;592;48.764;9.174;2023-06-14T10:18:14;8.03;;;6.07;;
1204;SDS011;592;48.764;9.174;2023-06-14T10:20:51;8.23;;;5.30;;
1204;SDS011;592;48.764;9.174;2023-06-14T10:23:24;7.23;;;5.50;;
1204;SDS011;592;48.764;9.174;2023-06-14T10:25:54;9.10;;;6.10;;
1204;SDS011;592;48.764;9.174;2023-06-14T10:28:22;8.27;;;5.83;;
1204;SDS011;592;48.764;9.174;2023-06-14T10:31:03;10.47;;;6.13;;
1204;SDS011;592;48.764;9.174;2023-06-14T10:33:31;8.20;;;5.87;;
1204;SDS011;592;48.764;9.174;2023-06-14T10:36:08;7.90;;;5.90;;
1204;SDS011;592;48.764;9.174;2023-06-14T10:38:36;10.70;;;5.90;;
1204;SDS011;592;48.764;9.174;2023-06-14T10:41:04;8.17;;;6.07;;
1204;SDS011;592;48.764;9.174;2023-06-14T10:43:31;7.20;;;5.80;;
1204;SDS011;592;48.764;9.174;2023-06-14T10:46:15;8.63;;;6.03;;
1204;SDS011;592;48.764;9.174;2023-06-14T10:48:43;8.40;;;5.40;;
1204;SDS011;592;48.764;9.174;2023-06-14T10:51:17;9.00;;;6.17;;
1204;SDS011;592;48.764;9.174;2023-06-14T10:53:47;13.40;;;5.60;;
1204;SDS011;592;48.764;9.174;2023-06-14T10:56:26;9.10;;;6.33;;
1204;SDS011;592;48.764;9.174;2023-06-14T10:58:53;7.50;;;6.23;;
1204;SDS011;592;48.764;9.174;2023-06-14T11:04:10;8.80;;;5.90;;
1204;SDS011;592;48.764;9.174;2023-06-14T11:06:47;9.20;;;5.67;;
1204;SDS011;592;48.764;9.174;2023-06-14T11:09:23;8.60;;;6.80;;
1204;SDS011;592;48.764;9.174;2023-06-14T11:12:15;9.23;;;6.47;;
1204;SDS011;592;48.764;9.174;2023-06-14T11:14:45;7.27;;;5.57;;
1204;SDS011;592;48.764;9.174;2023-06-14T11:17:13;8.20;;;5.40;;
1204;SDS011;592;48.764;9.174;2023-06-14T11:19:40;8.30;;;5.43;;
1204;SDS011;592;48.764;9.174;2023-06-14T11:22:07;13.00;;;5.90;;
1204;SDS011;592;48.764;9.174;2023-06-14T11:24:34;9.20;;;5.83;;
1204;SDS011;592;48.764;9.174;2023-06-14T11:27:00;10.10;;;5.97;;
1204;SDS011;592;48.764;9.174;2023-06-14T11:29:28;8.30;;;4.97;;
1204;SDS011;592;48.764;9.174;2023-06-14T11:31:56;7.93;;;5.07;;
1204;SDS011;592;48.764;9.174;2023-06-14T11:34:24;7.53;;;5.40;;
1204;SDS011;592;48.764;9.174;2023-06-14T11:36:50;7.90;;;5.13;;
1204;SDS011;592;48.764;9.174;2023-06-14T11:39:17;6.83;;;4.97;;
1204;SDS011;592;48.764;9.174;2023-06-14T11:41:51;10.80;;;5.47;;
1204;SDS011;592;48.764;9.174;2023-06-14T11:44:17;9.77;;;6.20;;
1204;SDS011;592;48.764;9.174;2023-06-14T11:46:44;9.03;;;5.60;;
1204;SDS011;592;48.764;9.174;2023-06-14T11:49:11;7.43;;;5.20;;
1204;SDS011;592;48.764;9.174;2023-06-14T11:51:39;8.07;;;5.43;;
1204;SDS011;592;48.764;9.174;2023-06-14T11:54:08;8.10;;;5.97;;
1204;SDS011;592;48.764;9.174;2023-06-14T11:56:36;9.13;;;5.23;;
1204;SDS011;592;48.764;9.174;2023-06-14T11:59:06;8.63;;;5.30;;
1204;SDS011;592;48.764;9.174;2023-06-14T12:01:35;9.17;;;5.10;;
1204;SDS011;592;48.764;9.174;2023-06-14T12:04:03;6.43;;;4.87;;
1204;SDS011;592;48.764;9.174;2023-06-14T12:06:31;8.10;;;5.47;;
1204;SDS011;592;48.764;9.174;2023-06-14T12:09:05;8.80;;;5.53;;
1204;SDS011;592;48.764;9.174;2023-06-14T12:11:37;8.17;;;5.30;;
1204;SDS011;592;48.764;9.174;2023-06-14T12:14:05;6.30;;;4.70;;
1204;SDS011;592;48.764;9.174;2023-06-14T12:16:32;8.57;;;5.23;;
1204;SDS011;592;48.764;9.174;2023-06-14T12:19:01;6.87;;;4.70;;
1204;SDS011;592;48.764;9.174;2023-06-14T12:21:35;13.60;;;5.47;;
1204;SDS011;592;48.764;9.174;2023-06-14T12:24:04;9.80;;;4.80;;
1204;SDS011;592;48.764;9.174;2023-06-14T12:26:32;9.40;;;5.50;;
1204;SDS011;592;48.764;9.174;2023-06-14T12:29:00;7.70;;;5.50;;
1204;SDS011;592;48.764;9.174;2023-06-14T12:31:27;8.53;;;4.80;;
1204;SDS011;592;48.764;9.174;2023-06-14T12:33:54;8.43;;;5.33;;
1204;SDS011;592;48.764;9.174;2023-06-14T12:36:21;8.20;;;4.93;;
1204;SDS011;592;48.764;9.174;2023-06-14T12:38:48;7.83;;;5.27;;
1204;SDS011;592;48.764;9.174;2023-06-14T12:41:19;8.30;;;5.07;;
1204;SDS011;592;48.764;9.174;2023-06-14T12:43:47;7.80;;;5.40;;
1204;SDS011;592;48.764;9.174;2023-06-14T12:46:13;11.50;;;5.10;;
1204;SDS011;592;48.764;9.174;2023-06-14T12:48:40;7.90;;;5.27;;
1204;SDS011;592;48.764;9.174;2023-06-14T12:51:07;9.27;;;5.30;;
1204;SDS011;592;48.764;9.174;2023-06-14T12:53:39;8.80;;;5.43;;
1204;SDS011;592;48.764;9.174;2023-06-14T12:56:05;7.90;;;4.67;;
1204;SDS011;592;48.764;9.174;2023-06-14T12:58:33;8.17;;;5.03;;
1204;SDS011;592;48.764;9.174;2023-06-14T13:01:00;8.73;;;5.53;;
1204;SDS011;592;48.764;9.174;2023-06-14T13:03:27;7.83;;;5.40;;
1204;SDS011;592;48.764;9.174;2023-06-14T13:05:54;6.90;;;5.03;;
1204;SDS011;592;48.764;9.174;2023-06-14T13:08:21;7.40;;;5.67;;
1204;SDS011;592;48.764;9.174;2023-06-14T13:10:48;8.20;;;5.00;;
1204;SDS011;592;48.764;9.174;2023-06-14T13:13:14;9.83;;;5.23;;
1204;SDS011;592;48.764;9.174;2023-06-14T13:15:42;8.50;;;5.50;;
1204;SDS011;592;48.764;9.174;2023-06-14T13:18:11;10.73;;;6.27;;
1204;SDS011;592;48.764;9.174;2023-06-14T13:20:38;9.07;;;5.27;;
1204;SDS011;592;48.764;9.174;2023-06-14T13:23:05;8.20;;;5.10;;
1204;SDS011;592;48.764;9.174;2023-06-14T13:25:33;9.23;;;5.60;;
1204;SDS011;592;48.764;9.174;2023-06-14T13:28:00;8.13;;;5.10;;
1204;SDS011;592;48.764;9.174;2023-06-14T13:30:27;8.20;;;5.53;;
1204;SDS011;592;48.764;9.174;2023-06-14T13:32:56;10.27;;;5.43;;
1204;SDS011;592;48.764;9.174;2023-06-14T13:35:23;6.90;;;4.70;;
1204;SDS011;592;48.764;9.174;2023-06-14T13:37:50;7.87;;;5.30;;
1204;SDS011;592;48.764;9.174;2023-06-14T13:40:17;7.00;;;4.73;;
1204;SDS011;592;48.764;9.174;2023-06-14T13:42:45;7.70;;;5.17;;
1204;SDS011;592;48.764;9.174;2023-06-14T13:45:13;8.07;;;5.17;;
1204;SDS011;592;48.764;9.174;2023-06-14T13:47:39;9.00;;;6.00;;
1204;SDS011;592;48.764;9.174;2023-06-14T13:50:08;8.63;;;5.47;;
1204;SDS011;592;48.764;9.174;2023-06-14T13:52:35;8.93;;;5.70;;
1204;SDS011;592;48.764;9.174;2023-06-14T13:55:02;7.37;;;5.23;;
1204;SDS011;592;48.764;9.174;2023-06-14T13:57:30;8.20;;;5.43;;
1204;SDS011;592;48.764;9.174;2023-06-14T13:59:56;8.03;;;5.03;;
1204;SDS011;592;48.764;9.174;2023-06-14T14:02:26;9.10;;;5.83;;
1204;SDS011;592;48.764;9.174;2023-06-14T14:04:53;8.40;;;5.60;;
1204;SDS011;592;48.764;9.174;2023-06-14T14:07:21;7.20;;;5.03;;
1204;SDS011;592;48.764;9.174;2023-06-14T14:09:48;9.93;;;5.50;;
1204;SDS011;592;48.764;9.174;2023-06-14T14:12:15;8.03;;;5.70;;
1204;SDS011;592;48.764;9.174;2023-06-14T14:14:43;7.80;;;5.27;;
1204;SDS011;592;48.764;9.174;2023-06-14T14:17:09;7.07;;;5.20;;
1204;SDS011;592;48.764;9.174;2023-06-14T14:19:37;7.67;;;5.70;;
1204;SDS011;592;48.764;9.174;2023-06-14T14:22:04;7.60;;;5.40;;
1204;SDS011;592;48.764;9.174;2023-06-14T14:24:32;6.23;;;4.83;;
1204;SDS011;592;48.764;9.174;2023-06-14T14:26:59;7.17;;;5.20;;
1204;SDS011;592;48.764;9.174;2023-06-14T14:29:25;7.80;;;5.23;;
1204;SDS011;592;48.764;9.174;2023-06-14T14:31:54;7.50;;;4.67;;
1204;SDS011;592;48.764;9.174;2023-06-14T14:34:21;7.60;;;5.33;;
1204;SDS011;592;48.764;9.174;2023-06-14T14:36:48;6.57;;;5.27;;
1204;SDS011;592;48.764;9.174;2023-06-14T14:39:14;7.67;;;5.47;;
1204;SDS011;592;48.764;9.174;2023-06-14T14:41:42;7.60;;;5.67;;
1204;SDS011;592;48.764;9.174;2023-06-14T14:44:09;6.90;;;5.30;;
1204;SDS011;592;48.764;9.174;2023-06-14T14:46:36;9.10;;;5.33;;
1204;SDS011;592;48.764;9.174;2023-06-14T14:49:02;8.50;;;6.37;;
1204;SDS011;592;48.764;9.174;2023-06-14T14:51:29;8.63;;;6.50;;
1204;SDS011;592;48.764;9.174;2023-06-14T14:53:56;8.90;;;5.73;;
1204;SDS011;592;48.764;9.174;2023-06-14T14:56:23;7.27;;;5.63;;
1204;SDS011;592;48.764;9.174;2023-06-14T14:58:52;8.20;;;5.97;;
1204;SDS011;592;48.764;9.174;2023-06-14T15:01:18;9.73;;;5.13;;
1204;SDS011;592;48.764;9.174;2023-06-14T15:03:45;7.70;;;5.20;;
1204;SDS011;592;48.764;9.174;2023-06-14T15:06:12;8.73;;;5.80;;
1204;SDS011;592;48.764;9.174;2023-06-14T15:08:39;6.43;;;5.00;;
1204;SDS011;592;48.764;9.174;2023-06-14T15:11:05;7.50;;;5.60;;
1204;SDS011;592;48.764;9.174;2023-06-14T15:13:32;13.50;;;5.60;;
1204;SDS011;592;48.764;9.174;2023-06-14T15:16:01;7.43;;;5.40;;
1204;SDS011;592;48.764;9.174;2023-06-14T15:18:27;7.67;;;5.50;;
1204;SDS011;592;48.764;9.174;2023-06-14T15:20:54;8.50;;;4.93;;
1204;SDS011;592;48.764;9.174;2023-06-14T15:23:21;7.30;;;5.13;;
1204;SDS011;592;48.764;9.174;2023-06-14T15:25:48;8.63;;;5.70;;
1204;SDS011;592;48.764;9.174;2023-06-14T15:28:16;6.90;;;5.03;;
1204;SDS011;592;48.764;9.174;2023-06-14T15:30:44;8.97;;;5.53;;
1204;SDS011;592;48.764;9.174;2023-06-14T15:33:12;8.77;;;5.53;;
1204;SDS011;592;48.764;9.174;2023-06-14T15:35:38;6.80;;;4.80;;